Decoded Metar for KPRC (PRESCOTT in AZ, USA) (IATA:PRC) | Meteo·Mobile Aviation Weather
aviador You're here:

KPRC Decoded Metar

PRESCOTT in AZ, USA
Report Time2019-02-22 04:26:00
UTC Time2019-02-22 04:41:33
Flight Rules lifr LIFR
Wind090° at 03 kt
W.Decomp.*RWY 12: 2.2 kt HW 2 kt LCW
RWY 03: 2.0 kt HW 2.2 kt RCW
W.Rank090° ranks 34
Current wind is below 090° avg. (5.5)
Visibility1207 m
Phenomena:Light Snow
Mist
Clouds:N/A
Ceiling1,200 ft
Temp-3°C (ISA -8)
Dew Point-3°C (100% RH)
AAT-6.5°C
QNH1003 hPa
Density Alt4,446 ft
Elevation5,000 ft
Report Wrong Elevation
Raw Report
KPRC 220426Z AUTO 09003KT 3/4SM -SN BR VV012 M03/M03 A2963 RMK AO2
P0002 T10281033=

Extra information for KPRC:More info

Metar Taf Metar & Taf Last 4 Metars F.Rules Stats Wind Profile Meteogram Temp Stats Airport Information Weather charts Add Link Nearby VenuesMetar ALERT Operation Metar Decoded Social comments

AIRNAV info for KPRC